Time;durP1;ratioP1;P1;durP2;ratioP2;P2;SDS_P1;SDS_P2;PMS_P1;PMS_P2;Temp;Humidity;BMP_temperature;BMP_pressure;BME280_temperature;BME280_humidity;BME280_pressure;Samples;Min_cycle;Max_cycle;Signal;HPM_P1;HPM_P2
2021/07/08 00:01:46;;;;;;;3.65;3.35;;;14.20;72.90;;;;;;4954094;28;96093;-54
2021/07/08 00:04:18;;;;;;;;;;;14.20;72.90;;;;;;4954004;28;96429;-54
2021/07/08 00:06:47;;;;;;;3.95;3.55;;;14.30;72.70;;;;;;4963563;28;95802;-57
2021/07/08 00:09:19;;;;;;;3.65;3.35;;;14.30;72.50;;;;;;4959391;28;95948;-56
2021/07/08 00:11:49;;;;;;;;;;;14.40;72.40;;;;;;4962215;28;96504;-58
2021/07/08 00:14:20;;;;;;;5.00;4.50;;;14.40;72.30;;;;;;4961243;28;96319;-53
2021/07/08 00:16:52;;;;;;;5.85;5.25;;;14.40;72.20;;;;;;4957679;28;95449;-53
2021/07/08 00:19:22;;;;;;;5.82;5.32;;;14.40;72.20;;;;;;4952983;28;96117;-53
2021/07/08 00:21:53;;;;;;;6.63;5.13;;;14.50;72.20;;;;;;4958631;28;96026;-55
2021/07/08 00:24:24;;;;;;;6.40;5.72;;;14.40;72.20;;;;;;4958729;28;95888;-55
2021/07/08 00:26:55;;;;;;;6.18;5.55;;;14.50;72.30;;;;;;4960979;28;97000;-58
2021/07/08 00:29:29;;;;;;;6.35;5.75;;;14.50;72.50;;;;;;4959330;28;95933;-51
2021/07/08 00:32:00;;;;;;;6.30;5.65;;;14.50;72.50;;;;;;4968846;28;95861;-55
2021/07/08 00:34:31;;;;;;;6.63;5.95;;;14.60;72.90;;;;;;4957350;28;95969;-55
2021/07/08 00:37:02;;;;;;;6.15;5.40;;;14.60;72.50;;;;;;4971500;28;96401;-50
2021/07/08 00:39:33;;;;;;;6.32;5.72;;;14.70;73.20;;;;;;4959229;28;96143;-57
2021/07/08 00:42:05;;;;;;;5.75;5.20;;;14.80;72.20;;;;;;4948137;28;96035;-54
2021/07/08 00:44:36;;;;;;;6.45;5.80;;;14.90;72.20;;;;;;4969111;28;103528;-55
2021/07/08 00:47:06;;;;;;;5.63;5.13;;;14.90;72.20;;;;;;4956679;28;95367;-54
2021/07/08 00:49:37;;;;;;;7.75;5.63;;;14.90;72.10;;;;;;4960211;28;95832;-54
2021/07/08 00:52:08;;;;;;;7.03;5.50;;;15.00;72.40;;;;;;4958119;28;96233;-54
2021/07/08 00:54:39;;;;;;;5.50;5.00;;;15.00;72.20;;;;;;4954847;28;98702;-57
2021/07/08 00:57:10;;;;;;;5.37;4.87;;;15.10;72.30;;;;;;4960186;28;95839;-54
2021/07/08 00:59:46;;;;;;;5.10;4.60;;;15.20;72.10;;;;;;4960352;28;96554;-58
2021/07/08 01:02:18;;;;;;;6.07;5.47;;;15.20;71.90;;;;;;4957898;28;99271;-53
2021/07/08 01:04:49;;;;;;;6.25;5.05;;;15.30;71.90;;;;;;4959856;28;96588;-57
2021/07/08 01:07:22;;;;;;;9.45;4.97;;;15.30;71.50;;;;;;4961011;28;95991;-55
2021/07/08 01:09:54;;;;;;;4.90;4.40;;;15.40;72.00;;;;;;4955616;28;95794;-51
2021/07/08 01:12:24;;;;;;;;;;;15.40;71.90;;;;;;4961221;28;95985;-49
2021/07/08 01:14:54;;;;;;;6.65;4.82;;;15.50;72.00;;;;;;4963357;28;96871;-59
2021/07/08 01:17:24;;;;;;;5.90;4.75;;;15.50;72.10;;;;;;4958247;28;95892;-52
2021/07/08 01:19:54;;;;;;;6.90;4.72;;;15.60;71.90;;;;;;4962847;28;95999;-59
2021/07/08 01:22:25;;;;;;;4.82;4.00;;;15.70;72.00;;;;;;4962446;28;95739;-55
2021/07/08 01:24:56;;;;;;;5.82;4.65;;;15.70;72.00;;;;;;4962282;28;96621;-52
2021/07/08 01:27:28;;;;;;;5.00;4.13;;;15.80;72.00;;;;;;4957332;28;96594;-58
2021/07/08 01:29:59;;;;;;;5.32;4.55;;;15.80;72.00;;;;;;4964279;28;95606;-58
2021/07/08 01:32:30;;;;;;;4.65;3.97;;;15.80;72.40;;;;;;4947194;28;96861;-57
2021/07/08 01:35:02;;;;;;;6.65;5.30;;;15.90;72.60;;;;;;4965196;28;96101;-60
2021/07/08 01:37:33;;;;;;;4.88;4.38;;;16.00;72.60;;;;;;4962255;28;95454;-60
2021/07/08 01:40:09;;;;;;;4.32;3.75;;;16.00;71.70;;;;;;4977803;28;95370;-61
2021/07/08 01:42:41;;;;;;;5.20;3.97;;;16.10;71.50;;;;;;4944183;28;99219;-63
2021/07/08 01:45:15;;;;;;;4.30;3.88;;;16.20;71.40;;;;;;4959646;28;96624;-61
2021/07/08 01:47:46;;;;;;;4.28;3.45;;;16.30;71.20;;;;;;4981228;28;103118;-62
2021/07/08 01:50:18;;;;;;;;;;;16.40;71.60;;;;;;4984060;28;95323;-66
2021/07/08 01:52:48;;;;;;;4.43;3.40;;;16.50;71.30;;;;;;4982517;28;96639;-62
2021/07/08 01:55:19;;;;;;;3.65;3.20;;;16.60;71.30;;;;;;4983985;28;97219;-63
2021/07/08 01:57:53;;;;;;;3.85;3.38;;;16.70;70.90;;;;;;4980710;28;96156;-64
2021/07/08 02:00:25;;;;;;;4.55;3.33;;;16.80;70.70;;;;;;4976362;28;97724;-64
2021/07/08 02:02:57;;;;;;;4.93;3.55;;;16.90;70.80;;;;;;4981862;28;96117;-53
2021/07/08 02:05:27;;;;;;;6.17;2.93;;;17.00;70.80;;;;;;4999327;28;96481;-57
2021/07/08 02:07:58;;;;;;;4.70;3.17;;;17.10;70.90;;;;;;4981070;28;96231;-57
2021/07/08 02:10:30;;;;;;;3.92;2.75;;;17.10;70.70;;;;;;4985459;28;97015;-60
2021/07/08 02:13:00;;;;;;;4.20;3.42;;;17.20;70.80;;;;;;4982359;28;96272;-60
2021/07/08 02:15:30;;;;;;;4.90;2.90;;;17.30;70.60;;;;;;4976091;27;95862;-60
2021/07/08 02:18:01;;;;;;;;;;;17.40;70.30;;;;;;4978065;28;99942;-63
2021/07/08 02:20:32;;;;;;;3.90;2.13;;;17.40;70.00;;;;;;4987979;28;95966;-52
2021/07/08 02:23:03;;;;;;;5.20;3.05;;;17.60;69.70;;;;;;4982286;28;100062;-53
2021/07/08 02:25:35;;;;;;;2.72;2.38;;;17.60;68.70;;;;;;4984447;28;96153;-54
2021/07/08 02:28:06;;;;;;;2.80;2.50;;;17.70;68.40;;;;;;4980554;28;96103;-53
2021/07/08 02:30:37;;;;;;;3.03;2.53;;;17.80;68.10;;;;;;4975582;28;95781;-51
2021/07/08 02:33:09;;;;;;;3.92;2.92;;;17.90;67.90;;;;;;4955842;28;96167;-61
2021/07/08 02:35:40;;;;;;;3.17;2.83;;;18.00;67.60;;;;;;4963435;28;96359;-62
2021/07/08 02:38:11;;;;;;;;;;;18.10;67.50;;;;;;4964867;28;97077;-54
2021/07/08 02:40:42;;;;;;;2.53;2.33;;;18.10;66.30;;;;;;4975030;28;96337;-49
2021/07/08 02:43:13;;;;;;;5.68;3.08;;;18.30;66.80;;;;;;4957605;28;97491;-50
2021/07/08 02:45:45;;;;;;;2.70;2.35;;;18.40;67.10;;;;;;4961399;28;96607;-58
2021/07/08 02:48:19;;;;;;;2.95;2.38;;;18.50;67.30;;;;;;4984821;28;96167;-48
2021/07/08 02:50:52;;;;;;;2.45;2.25;;;18.70;67.50;;;;;;4976892;28;97298;-53
2021/07/08 02:53:22;;;;;;;2.47;1.98;;;18.80;67.60;;;;;;4986177;28;95944;-52
2021/07/08 02:55:54;;;;;;;1.97;1.77;;;19.00;67.40;;;;;;4985274;28;96989;-55
2021/07/08 02:58:25;;;;;;;2.15;2.05;;;19.20;67.40;;;;;;4985286;28;95575;-52
2021/07/08 03:00:56;;;;;;;2.50;2.00;;;19.30;67.50;;;;;;4978447;27;99623;-58
2021/07/08 03:03:26;;;;;;;1.55;1.45;;;19.50;67.30;;;;;;4986815;28;95207;-54
2021/07/08 03:05:57;;;;;;;1.83;1.73;;;19.60;67.40;;;;;;4978313;28;95960;-51
2021/07/08 03:08:27;;;;;;;3.13;2.08;;;19.70;65.60;;;;;;4984087;28;95742;-54
2021/07/08 03:11:01;;;;;;;2.10;1.85;;;19.70;66.00;;;;;;4981469;28;95968;-52
2021/07/08 03:13:32;;;;;;;3.05;1.67;;;19.90;66.20;;;;;;4987141;28;97559;-52
2021/07/08 03:16:02;;;;;;;1.75;1.65;;;20.00;66.20;;;;;;4977609;28;95857;-52
2021/07/08 03:18:32;;;;;;;2.38;2.17;;;20.20;66.20;;;;;;4983217;28;95897;-54
2021/07/08 03:21:02;;;;;;;2.20;2.00;;;20.20;63.50;;;;;;4978254;28;95801;-54
2021/07/08 03:23:35;;;;;;;2.17;1.95;;;20.00;62.00;;;;;;4979183;28;95825;-52
2021/07/08 03:26:06;;;;;;;2.20;2.00;;;19.90;62.40;;;;;;4979408;28;96566;-52
2021/07/08 03:28:36;;;;;;;2.55;2.30;;;19.80;62.50;;;;;;4981891;28;95723;-60
2021/07/08 03:31:07;;;;;;;2.05;1.85;;;19.80;62.60;;;;;;4971414;28;96246;-51
2021/07/08 03:33:38;;;;;;;1.77;1.67;;;19.70;62.60;;;;;;4981243;28;95288;-52
2021/07/08 03:36:09;;;;;;;2.08;1.88;;;19.70;62.60;;;;;;4980149;28;95853;-57
2021/07/08 03:38:40;;;;;;;4.35;2.13;;;19.60;63.10;;;;;;4980216;28;95814;-52
2021/07/08 03:41:11;;;;;;;;;;;19.80;63.50;;;;;;4973807;28;100496;-58
2021/07/08 03:43:42;;;;;;;2.07;1.60;;;20.00;63.60;;;;;;4979344;28;95997;-58
2021/07/08 03:46:13;;;;;;;2.97;1.63;;;20.20;63.70;;;;;;4975136;28;96335;-51
2021/07/08 03:48:45;;;;;;;1.90;1.70;;;20.30;63.70;;;;;;4982026;28;95732;-61
2021/07/08 03:51:15;;;;;;;4.40;2.00;;;20.40;63.90;;;;;;4981139;28;96762;-53
2021/07/08 03:53:47;;;;;;;1.33;1.23;;;20.50;63.90;;;;;;4983437;28;95322;-53
2021/07/08 03:56:17;;;;;;;;;;;20.60;62.70;;;;;;4977201;28;96101;-59
2021/07/08 03:58:47;;;;;;;1.33;1.23;;;20.60;63.70;;;;;;4981528;28;95837;-56
2021/07/08 04:01:17;;;;;;;2.15;1.83;;;20.70;63.80;;;;;;4978308;27;97871;-57
2021/07/08 04:03:47;;;;;;;1.75;1.65;;;20.50;60.20;;;;;;4979065;28;96073;-54
2021/07/08 04:06:17;;;;;;;2.38;1.40;;;20.20;61.10;;;;;;4982960;28;96175;-59
2021/07/08 04:08:50;;;;;;;1.60;1.50;;;20.00;62.20;;;;;;4980269;28;95911;-53
2021/07/08 04:11:20;;;;;;;1.80;1.13;;;19.90;62.90;;;;;;4981329;28;95819;-58
2021/07/08 04:13:50;;;;;;;1.58;1.48;;;20.10;63.00;;;;;;4974687;28;95575;-50
2021/07/08 04:16:20;;;;;;;1.70;1.60;;;20.30;62.80;;;;;;4979149;27;95988;-57
2021/07/08 04:18:52;;;;;;;1.40;1.30;;;20.50;62.90;;;;;;4982297;28;96241;-52
2021/07/08 04:21:22;;;;;;;1.60;1.50;;;20.60;62.80;;;;;;4984826;28;95881;-59
2021/07/08 04:23:53;;;;;;;;;;;20.80;63.00;;;;;;4982662;28;100513;-52
2021/07/08 04:26:24;;;;;;;1.48;1.38;;;20.90;63.00;;;;;;4983887;28;96492;-54
2021/07/08 04:28:54;;;;;;;1.13;1.03;;;20.90;63.10;;;;;;4976753;28;95285;-58
2021/07/08 04:31:24;;;;;;;1.27;1.20;;;21.00;63.20;;;;;;4973437;28;96840;-50
2021/07/08 04:33:56;;;;;;;1.45;1.35;;;21.00;63.50;;;;;;4978881;28;95707;-52
2021/07/08 04:36:27;;;;;;;1.80;1.63;;;21.10;63.40;;;;;;4983012;28;95979;-52
2021/07/08 04:38:58;;;;;;;1.55;1.45;;;21.10;63.40;;;;;;4981051;28;95880;-51
2021/07/08 04:41:29;;;;;;;1.15;1.15;;;21.10;63.40;;;;;;4975686;28;95298;-48
2021/07/08 04:44:01;;;;;;;1.63;1.48;;;21.20;63.50;;;;;;4972247;28;96159;-58
2021/07/08 04:46:32;;;;;;;1.58;1.48;;;21.20;63.60;;;;;;4972600;28;95940;-49
2021/07/08 04:49:05;;;;;;;1.17;1.10;;;21.20;63.60;;;;;;4979579;28;96252;-50
2021/07/08 04:51:38;;;;;;;1.17;1.10;;;21.20;63.70;;;;;;4998459;28;95738;-52
2021/07/08 04:54:10;;;;;;;1.13;1.02;;;21.30;63.70;;;;;;4984829;28;95859;-51
2021/07/08 04:56:40;;;;;;;1.08;1.08;;;21.30;63.80;;;;;;5003120;28;97128;-59
2021/07/08 04:59:11;;;;;;;;;;;21.30;63.90;;;;;;4985779;28;95739;-58
2021/07/08 05:01:41;;;;;;;1.50;1.40;;;21.30;64.00;;;;;;4983660;27;95867;-54
2021/07/08 05:04:11;;;;;;;1.40;1.30;;;21.30;64.10;;;;;;4979148;28;95955;-61
2021/07/08 05:06:41;;;;;;;1.35;1.25;;;21.40;64.20;;;;;;4982091;28;96533;-56
2021/07/08 05:09:12;;;;;;;;;;;21.40;64.30;;;;;;4985527;28;95937;-54
2021/07/08 05:11:44;;;;;;;1.20;1.10;;;21.40;64.30;;;;;;4988660;28;96119;-55
2021/07/08 05:14:16;;;;;;;1.30;1.20;;;21.40;64.40;;;;;;4989230;28;95633;-59
2021/07/08 05:16:45;;;;;;;;;;;21.50;64.50;;;;;;4993013;28;105473;-54
2021/07/08 05:19:15;;;;;;;1.27;1.17;;;21.50;64.50;;;;;;4967637;28;95838;-53
2021/07/08 05:21:50;;;;;;;2.30;1.35;;;21.50;64.50;;;;;;4964862;28;96557;-59
2021/07/08 05:24:23;;;;;;;1.23;1.13;;;21.50;64.60;;;;;;4970523;28;95286;-58
2021/07/08 05:26:54;;;;;;;1.20;1.10;;;21.50;64.60;;;;;;4964937;28;96543;-59
2021/07/08 05:29:25;;;;;;;1.20;1.13;;;21.50;64.50;;;;;;4965341;28;96112;-59
2021/07/08 05:31:56;;;;;;;1.58;1.20;;;21.60;64.50;;;;;;4960191;28;95764;-59
2021/07/08 05:34:27;;;;;;;1.70;1.60;;;21.60;65.30;;;;;;4966008;28;95490;-60
2021/07/08 05:36:58;;;;;;;2.17;1.97;;;21.50;59.50;;;;;;4958716;28;96129;-59
2021/07/08 05:39:29;;;;;;;1.90;1.70;;;21.00;59.00;;;;;;4965832;28;95484;-52
2021/07/08 05:42:00;;;;;;;;;;;20.50;61.10;;;;;;4952809;28;95857;-54
2021/07/08 05:44:32;;;;;;;1.85;1.50;;;20.20;62.00;;;;;;4966261;28;100325;-53
2021/07/08 05:47:03;;;;;;;1.92;1.70;;;20.00;62.60;;;;;;4973251;28;95930;-54
2021/07/08 05:49:55;;;;;;;1.55;1.45;;;19.90;62.90;;;;;;4981418;28;97061;-59
2021/07/08 05:52:26;;;;;;;1.50;1.40;;;19.70;63.30;;;;;;4977309;28;96566;-53
2021/07/08 05:54:57;;;;;;;1.80;1.70;;;19.60;63.50;;;;;;4982171;28;97364;-55
2021/07/08 05:57:28;;;;;;;1.50;1.40;;;19.50;63.60;;;;;;4985012;28;96799;-51
2021/07/08 05:59:58;;;;;;;1.73;1.63;;;19.50;63.80;;;;;;4988876;28;95608;-61
2021/07/08 06:02:28;;;;;;;2.72;1.80;;;19.30;64.10;;;;;;4984519;27;95990;-52
2021/07/08 06:04:59;;;;;;;1.48;1.38;;;19.20;64.50;;;;;;4983919;28;95550;-60
2021/07/08 06:07:31;;;;;;;1.80;1.70;;;19.10;65.00;;;;;;4987843;28;97004;-60
2021/07/08 06:10:06;;;;;;;1.73;1.40;;;19.10;65.80;;;;;;4984304;28;95938;-58
2021/07/08 06:12:38;;;;;;;2.13;1.50;;;19.10;65.10;;;;;;4984741;28;95338;-60
2021/07/08 06:15:07;;;;;;;;;;;19.00;65.20;;;;;;5002072;28;96116;-60
2021/07/08 06:17:38;;;;;;;1.63;1.52;;;19.00;65.20;;;;;;4983888;28;96749;-60
2021/07/08 06:20:11;;;;;;;1.85;1.73;;;19.00;65.40;;;;;;4985671;28;96151;-61
2021/07/08 06:22:41;;;;;;;1.70;1.60;;;18.90;65.60;;;;;;4986387;28;96125;-60
2021/07/08 06:25:14;;;;;;;2.20;1.80;;;18.80;65.80;;;;;;4987084;28;96003;-59
2021/07/08 06:27:45;;;;;;;2.08;1.40;;;18.70;65.80;;;;;;4980963;28;95902;-59
2021/07/08 06:30:18;;;;;;;1.38;1.27;;;18.60;66.30;;;;;;4982926;28;97699;-58
2021/07/08 06:32:49;;;;;;;1.70;1.60;;;18.50;66.60;;;;;;4984393;28;95819;-59
2021/07/08 06:35:20;;;;;;;1.63;1.52;;;18.40;66.90;;;;;;4986486;28;96041;-52
2021/07/08 06:37:51;;;;;;;2.70;1.77;;;18.20;67.20;;;;;;4985403;28;96035;-50
2021/07/08 06:40:22;;;;;;;1.60;1.50;;;18.20;67.40;;;;;;4983927;28;96066;-53
2021/07/08 06:42:57;;;;;;;1.40;1.30;;;18.20;67.50;;;;;;4973362;28;98472;-60
2021/07/08 06:45:30;;;;;;;2.22;1.73;;;18.10;67.70;;;;;;4976861;28;96350;-60
2021/07/08 06:48:04;;;;;;;2.00;1.80;;;18.00;67.90;;;;;;4983278;28;102392;-61
2021/07/08 06:50:37;;;;;;;1.67;1.58;;;18.00;68.00;;;;;;4986306;28;95924;-53
2021/07/08 06:53:07;;;;;;;1.98;1.77;;;17.90;68.10;;;;;;4988912;28;95853;-56
2021/07/08 06:55:39;;;;;;;1.85;1.75;;;17.80;68.20;;;;;;4982993;28;95701;-53
2021/07/08 06:58:10;;;;;;;2.03;1.67;;;17.80;68.20;;;;;;4983209;28;96218;-62
2021/07/08 07:00:41;;;;;;;1.95;1.73;;;17.80;68.20;;;;;;4972338;28;95934;-52
2021/07/08 07:03:12;;;;;;;1.63;1.52;;;17.70;68.30;;;;;;4983994;28;96130;-56
2021/07/08 07:05:45;;;;;;;1.95;1.60;;;17.60;68.50;;;;;;4982848;28;95832;-57
2021/07/08 07:08:15;;;;;;;1.70;1.60;;;17.60;68.70;;;;;;4985447;28;96135;-52
2021/07/08 07:10:46;;;;;;;2.17;1.77;;;17.60;68.70;;;;;;4985303;28;96145;-53
2021/07/08 07:13:16;;;;;;;2.00;1.90;;;17.80;68.20;;;;;;4985337;28;95966;-54
2021/07/08 07:15:46;;;;;;;2.65;1.70;;;17.90;67.80;;;;;;4977252;28;95827;-49
2021/07/08 07:18:18;;;;;;;3.35;1.90;;;18.00;67.50;;;;;;4980574;28;96133;-53
2021/07/08 07:20:48;;;;;;;2.27;2.00;;;18.00;67.30;;;;;;4983066;28;95934;-52
2021/07/08 07:23:20;;;;;;;1.58;1.48;;;18.00;67.10;;;;;;4986740;28;95878;-48
2021/07/08 07:25:51;;;;;;;1.55;1.45;;;18.00;67.00;;;;;;4984723;28;95364;-50
2021/07/08 07:28:23;;;;;;;1.75;1.40;;;18.10;67.00;;;;;;4988614;28;97902;-51
2021/07/08 07:30:54;;;;;;;1.83;1.52;;;18.10;67.00;;;;;;4978794;28;95383;-52
2021/07/08 07:33:26;;;;;;;1.95;1.85;;;18.00;66.80;;;;;;4982106;28;96910;-50
2021/07/08 07:35:57;;;;;;;2.78;2.05;;;18.10;66.90;;;;;;4981095;28;95791;-53
2021/07/08 07:38:28;;;;;;;2.17;1.80;;;18.00;66.80;;;;;;4984894;28;95886;-55
2021/07/08 07:41:00;;;;;;;2.53;2.20;;;18.00;66.80;;;;;;4983536;28;98224;-52
2021/07/08 07:43:31;;;;;;;2.30;2.10;;;18.00;66.80;;;;;;4977215;28;96112;-53
2021/07/08 07:46:02;;;;;;;2.83;2.35;;;18.00;66.80;;;;;;4969094;28;96040;-51
2021/07/08 07:48:34;;;;;;;2.85;1.90;;;18.00;66.80;;;;;;4964171;28;96322;-52
2021/07/08 07:51:05;;;;;;;2.83;2.33;;;18.00;66.80;;;;;;4959062;28;95926;-52
2021/07/08 07:53:36;;;;;;;2.20;2.00;;;18.00;66.70;;;;;;4969225;28;96658;-51
2021/07/08 07:56:07;;;;;;;2.38;2.17;;;18.00;66.80;;;;;;4966231;28;95538;-52
2021/07/08 07:58:37;;;;;;;2.27;2.10;;;18.00;66.80;;;;;;4965055;28;96050;-52
2021/07/08 08:01:08;;;;;;;2.53;2.08;;;17.90;66.80;;;;;;4966193;28;95330;-49
2021/07/08 08:03:40;;;;;;;2.72;2.20;;;17.90;66.90;;;;;;4983825;28;95805;-49
2021/07/08 08:08:58;;;;;;;3.63;2.58;;;17.90;66.80;;;;;;4981970;28;97981;-50
2021/07/08 08:11:30;;;;;;;2.72;2.53;;;17.90;66.80;;;;;;4981158;28;95949;-52
2021/07/08 08:14:00;;;;;;;4.10;2.90;;;17.90;66.90;;;;;;4986354;28;95746;-50
2021/07/08 08:16:33;;;;;;;2.72;2.35;;;17.80;66.80;;;;;;4976985;28;96404;-53
2021/07/08 08:19:06;;;;;;;3.63;2.88;;;17.80;66.80;;;;;;4982314;28;96520;-51
2021/07/08 08:21:37;;;;;;;3.05;2.47;;;17.80;66.80;;;;;;4982041;28;96041;-55
2021/07/08 08:24:07;;;;;;;3.40;2.80;;;17.80;66.90;;;;;;4982972;28;95384;-50
2021/07/08 08:26:38;;;;;;;3.97;3.20;;;17.80;66.90;;;;;;5000585;28;95744;-53
2021/07/08 08:29:09;;;;;;;;;;;17.70;66.80;;;;;;4981462;28;96685;-51
2021/07/08 08:31:40;;;;;;;3.47;3.13;;;17.70;67.00;;;;;;4981203;28;95767;-52
2021/07/08 08:34:10;;;;;;;;;;;17.60;67.00;;;;;;4982903;28;98847;-53
2021/07/08 08:36:41;;;;;;;3.28;2.75;;;17.70;67.00;;;;;;4985699;28;96035;-51
2021/07/08 08:39:18;;;;;;;3.38;2.92;;;17.60;66.90;;;;;;4978014;28;95949;-53
2021/07/08 08:41:50;;;;;;;3.85;3.15;;;17.60;67.00;;;;;;4978885;28;95697;-54
2021/07/08 08:44:22;;;;;;;4.38;3.30;;;17.60;67.00;;;;;;4974143;28;96078;-50
2021/07/08 08:46:53;;;;;;;3.13;2.88;;;17.60;67.00;;;;;;4980115;27;97735;-53
2021/07/08 08:49:23;;;;;;;3.97;3.30;;;17.50;67.00;;;;;;4982819;28;100476;-53
2021/07/08 08:51:54;;;;;;;3.70;3.30;;;17.50;67.00;;;;;;4985713;28;95362;-53
2021/07/08 08:54:25;;;;;;;3.33;2.92;;;17.50;67.10;;;;;;4997509;28;96260;-50
2021/07/08 08:56:56;;;;;;;4.80;3.45;;;17.50;67.10;;;;;;4981027;28;96395;-52
2021/07/08 08:59:27;;;;;;;;;;;17.50;67.20;;;;;;4981780;28;95902;-52
2021/07/08 09:02:18;;;;;;;3.95;3.45;;;17.40;67.10;;;;;;4995574;28;96090;-59
2021/07/08 09:04:50;;;;;;;4.20;3.70;;;17.40;67.20;;;;;;4965159;28;95780;-59
2021/07/08 09:07:30;;;;;;;4.43;3.58;;;17.40;67.20;;;;;;4964530;28;95822;-57
2021/07/08 09:10:12;;;;;;;5.18;3.63;;;17.30;67.20;;;;;;4956966;28;98047;-59
2021/07/08 09:12:46;;;;;;;3.88;3.47;;;17.30;67.20;;;;;;4959268;28;95900;-58
2021/07/08 09:15:21;;;;;;;3.83;3.42;;;17.30;67.30;;;;;;4950920;28;95964;-58
2021/07/08 09:17:52;;;;;;;3.72;3.35;;;17.30;67.40;;;;;;4962132;28;95867;-52
2021/07/08 09:20:22;;;;;;;3.63;3.33;;;17.30;67.40;;;;;;4957450;28;97025;-52
2021/07/08 09:23:06;;;;;;;3.60;3.30;;;17.20;67.40;;;;;;4958496;28;96158;-57
2021/07/08 09:25:38;;;;;;;3.47;3.10;;;17.20;67.40;;;;;;4955221;28;97931;-59
2021/07/08 09:28:26;;;;;;;3.70;3.28;;;17.20;67.40;;;;;;4960307;28;95633;-51
2021/07/08 09:31:06;;;;;;;4.28;3.88;;;17.10;67.40;;;;;;4946663;28;96872;-60
2021/07/08 09:33:41;;;;;;;4.65;3.80;;;17.10;67.40;;;;;;4959189;28;96981;-51
2021/07/08 09:36:15;;;;;;;4.95;4.07;;;17.00;67.40;;;;;;4959556;28;95733;-59
2021/07/08 09:38:58;;;;;;;5.05;4.25;;;17.00;67.40;;;;;;4975672;28;95724;-51
2021/07/08 09:41:29;;;;;;;4.85;3.50;;;16.90;67.40;;;;;;4961363;28;97627;-60
2021/07/08 09:44:02;;;;;;;4.30;3.70;;;16.90;67.50;;;;;;4955442;28;96280;-59
2021/07/08 09:46:37;;;;;;;4.68;3.90;;;16.80;67.50;;;;;;4953895;28;96103;-54
2021/07/08 09:49:09;;;;;;;4.03;3.55;;;16.80;67.80;;;;;;4967655;28;95718;-53
2021/07/08 09:51:43;;;;;;;4.45;3.30;;;16.70;67.80;;;;;;4964495;28;96040;-59
2021/07/08 09:54:24;;;;;;;3.95;3.55;;;16.70;67.90;;;;;;4961215;28;95441;-60
2021/07/08 09:56:56;;;;;;;4.10;3.55;;;16.60;67.90;;;;;;4962103;28;95745;-59
2021/07/08 09:59:38;;;;;;;3.95;3.42;;;16.60;67.80;;;;;;4961837;28;95622;-51
2021/07/08 10:02:09;;;;;;;4.80;4.00;;;16.60;67.90;;;;;;4956363;28;95878;-60
2021/07/08 10:04:39;;;;;;;5.00;3.80;;;16.50;67.90;;;;;;4960235;28;95691;-53
2021/07/08 10:07:09;;;;;;;3.78;3.47;;;16.50;67.90;;;;;;4962125;28;95892;-53
2021/07/08 10:09:40;;;;;;;4.40;4.00;;;16.50;68.00;;;;;;4965204;28;95910;-52
2021/07/08 10:12:11;;;;;;;;;;;16.50;68.10;;;;;;4965460;28;101988;-51
2021/07/08 10:14:43;;;;;;;5.20;4.05;;;16.40;68.30;;;;;;4965009;28;95929;-54
2021/07/08 10:17:19;;;;;;;4.22;3.80;;;16.30;68.60;;;;;;4955496;28;102292;-51
2021/07/08 10:19:52;;;;;;;4.72;4.25;;;16.30;68.50;;;;;;4966236;28;95374;-60
2021/07/08 10:22:26;;;;;;;4.43;4.03;;;16.30;68.70;;;;;;4964507;28;97550;-56
2021/07/08 10:24:57;;;;;;;4.70;4.20;;;16.30;68.60;;;;;;4957123;28;95533;-53
2021/07/08 10:27:29;;;;;;;4.70;3.72;;;16.20;68.60;;;;;;4958738;28;95885;-58
2021/07/08 10:30:01;;;;;;;3.85;3.50;;;16.20;68.60;;;;;;4970063;28;95723;-58
2021/07/08 10:32:34;;;;;;;4.70;4.22;;;16.10;68.70;;;;;;4960533;28;96679;-59
2021/07/08 10:35:07;;;;;;;4.82;4.28;;;16.10;68.80;;;;;;4970779;28;95801;-58
2021/07/08 10:37:43;;;;;;;4.43;4.03;;;16.00;68.80;;;;;;4961197;28;95787;-54
2021/07/08 10:40:38;;;;;;;5.32;4.53;;;16.00;68.90;;;;;;4956459;28;95443;-59
2021/07/08 10:43:13;;;;;;;4.88;4.07;;;15.90;68.80;;;;;;4955531;28;96610;-52
2021/07/08 10:45:46;;;;;;;6.00;4.50;;;15.90;68.90;;;;;;4956357;28;96116;-58
2021/07/08 10:48:24;;;;;;;4.88;4.47;;;15.90;69.00;;;;;;4963872;28;97889;-58
2021/07/08 10:50:56;;;;;;;5.55;5.05;;;15.80;69.00;;;;;;4965022;28;95807;-58
2021/07/08 10:53:38;;;;;;;7.05;5.53;;;15.80;69.00;;;;;;4950952;28;96366;-59
2021/07/08 10:56:08;;;;;;;;;;;15.80;69.00;;;;;;4951617;28;95965;-58
2021/07/08 10:58:57;;;;;;;6.93;5.20;;;15.80;69.10;;;;;;4952930;28;96994;-60
2021/07/08 11:01:38;;;;;;;5.22;4.72;;;15.70;69.20;;;;;;4949731;28;96096;-59
2021/07/08 11:04:09;;;;;;;5.40;4.82;;;15.70;69.10;;;;;;4959002;28;99824;-59
2021/07/08 11:06:46;;;;;;;6.20;5.22;;;15.60;69.20;;;;;;4951424;28;95563;-58
2021/07/08 11:09:17;;;;;;;5.45;4.85;;;15.60;69.10;;;;;;4950395;28;95468;-58
2021/07/08 11:11:50;;;;;;;5.90;5.40;;;15.50;69.10;;;;;;4966743;28;95824;-58
2021/07/08 11:14:20;;;;;;;5.30;4.80;;;15.50;69.20;;;;;;4970047;28;96086;-60
2021/07/08 11:17:00;;;;;;;5.95;5.20;;;15.50;69.20;;;;;;4955631;28;95212;-59
2021/07/08 11:19:37;;;;;;;7.13;5.75;;;15.50;69.20;;;;;;4953467;28;95813;-58
2021/07/08 11:22:24;;;;;;;5.63;5.10;;;15.40;69.20;;;;;;4959916;28;95717;-58
2021/07/08 11:24:56;;;;;;;5.57;4.82;;;15.40;69.30;;;;;;4954517;28;95859;-59
2021/07/08 11:27:33;;;;;;;6.63;5.63;;;15.30;69.20;;;;;;4948120;28;95694;-58
2021/07/08 11:30:15;;;;;;;6.90;5.30;;;15.30;69.30;;;;;;4946024;28;95477;-59
2021/07/08 11:35:37;;;;;;;6.13;5.32;;;15.20;69.20;;;;;;4961805;28;96120;-59
2021/07/08 11:38:15;;;;;;;5.88;5.25;;;15.20;70.00;;;;;;4963763;28;95420;-59
2021/07/08 11:40:50;;;;;;;6.60;5.90;;;15.20;69.40;;;;;;4959039;28;95687;-55
2021/07/08 11:43:32;;;;;;;7.32;5.95;;;15.10;69.40;;;;;;4956608;28;96007;-58
2021/07/08 11:46:12;;;;;;;6.32;5.72;;;15.10;69.40;;;;;;4943988;28;96150;-55
2021/07/08 11:48:46;;;;;;;9.23;6.28;;;15.00;69.40;;;;;;4953975;28;95755;-58
2021/07/08 11:51:23;;;;;;;6.53;5.57;;;15.00;70.10;;;;;;4955613;28;96268;-58
2021/07/08 11:53:53;;;;;;;6.10;5.50;;;15.00;69.40;;;;;;4960692;28;95959;-58
2021/07/08 11:56:25;;;;;;;6.25;5.63;;;15.00;69.50;;;;;;4964239;28;95864;-54
2021/07/08 11:58:57;;;;;;;6.95;5.55;;;14.90;69.50;;;;;;4959097;28;96088;-55
2021/07/08 12:01:28;;;;;;;7.72;6.93;;;14.90;69.50;;;;;;4953269;28;95819;-56
2021/07/08 12:03:59;;;;;;;6.72;6.10;;;14.90;69.60;;;;;;4965555;28;96479;-59
2021/07/08 12:06:30;;;;;;;7.22;6.32;;;14.80;69.60;;;;;;4957900;28;95969;-58
2021/07/08 12:09:07;;;;;;;6.10;5.50;;;14.80;69.50;;;;;;4968383;28;95648;-54
2021/07/08 12:11:42;;;;;;;8.45;6.50;;;14.80;69.60;;;;;;4954702;28;96002;-58
2021/07/08 12:14:16;;;;;;;7.43;6.53;;;14.80;69.60;;;;;;4950163;28;95774;-59
2021/07/08 12:16:54;;;;;;;9.50;6.55;;;14.70;69.60;;;;;;4944498;28;96372;-59
2021/07/08 12:19:29;;;;;;;6.90;6.20;;;14.70;69.60;;;;;;4957887;28;95786;-58
2021/07/08 12:22:05;;;;;;;7.25;6.32;;;14.70;69.70;;;;;;4956384;28;95856;-58
2021/07/08 12:24:39;;;;;;;6.97;6.03;;;14.60;69.70;;;;;;4967877;28;95708;-59
2021/07/08 12:27:09;;;;;;;7.65;6.85;;;14.60;69.60;;;;;;4948123;28;98378;-58
2021/07/08 12:29:44;;;;;;;6.68;5.97;;;14.60;69.60;;;;;;4962186;28;95771;-58
2021/07/08 12:32:25;;;;;;;7.18;6.47;;;14.50;69.70;;;;;;4947876;28;95697;-65
2021/07/08 12:34:59;;;;;;;7.70;6.90;;;14.50;69.70;;;;;;4919792;28;97635;-61
2021/07/08 12:37:40;;;;;;;9.35;8.30;;;14.40;70.70;;;;;;4957488;28;95907;-60
2021/07/08 12:40:19;;;;;;;8.63;7.72;;;14.50;70.80;;;;;;4961112;28;97509;-61
2021/07/08 12:42:50;;;;;;;9.68;7.97;;;14.50;70.80;;;;;;4955034;28;96864;-60
2021/07/08 12:45:25;;;;;;;9.13;7.75;;;14.60;70.70;;;;;;4951052;28;96067;-61
2021/07/08 12:47:58;;;;;;;9.18;7.95;;;14.70;70.50;;;;;;4957281;28;96738;-62
2021/07/08 12:50:36;;;;;;;9.90;8.30;;;14.80;70.20;;;;;;4957304;28;95355;-55
2021/07/08 12:53:08;;;;;;;9.90;8.23;;;14.80;70.10;;;;;;4957360;28;95562;-53
2021/07/08 12:55:52;;;;;;;10.60;8.63;;;14.80;69.90;;;;;;4962747;28;95679;-54
2021/07/08 12:58:25;;;;;;;11.82;9.45;;;14.80;69.90;;;;;;4960190;28;95886;-59
2021/07/08 13:01:03;;;;;;;12.32;9.43;;;14.80;70.00;;;;;;4956936;28;96094;-57
2021/07/08 13:03:40;;;;;;;11.77;9.90;;;14.80;70.00;;;;;;4949979;28;96395;-57
2021/07/08 13:06:13;;;;;;;10.93;8.85;;;14.70;70.30;;;;;;4957778;28;96334;-60
2021/07/08 13:08:43;;;;;;;11.57;9.82;;;14.60;70.60;;;;;;4952637;28;96093;-59
2021/07/08 13:11:17;;;;;;;11.90;9.15;;;14.50;70.60;;;;;;4960557;28;95848;-60
2021/07/08 13:13:48;;;;;;;12.02;9.27;;;14.50;71.00;;;;;;4958613;28;96960;-60
2021/07/08 13:16:27;;;;;;;11.02;9.43;;;14.50;71.00;;;;;;4959267;28;95864;-60
2021/07/08 13:19:14;;;;;;;10.27;8.55;;;14.40;70.80;;;;;;4960057;28;96778;-55
2021/07/08 13:21:45;;;;;;;10.05;8.77;;;14.40;70.70;;;;;;4964429;28;97106;-53
2021/07/08 13:24:24;;;;;;;9.38;8.00;;;14.50;70.60;;;;;;4955646;28;96284;-60